Picton Castle — E5WP — position and weather

sailwx.info

Track history (hours):
 
Tides and Currents Weather Stations Pressure Air Temp Water Temp Dewpoint Dewpoint Depression Visibility Wind Speed Wind Dir Waves Ship Positions

Picton Castle (Cook Islands)

Ship's website: http://www.picton-castle.com/

Last reported at 2019-Aug-08 10:29 UTC. Time now 2019-Aug-22 08:52 UTC.
Position N 45°24' W 083°32'.
Warning: this ship's position is 13 days out of date.

Length 37 m; draft 4.6 m.

Type: Sailing vessel. MMSI: 518000019.

Date/timePositionNaut miles runAvg speedWind from/ knotsBaromVisibWave heightAir tempDewpointWater temp
2019-Aug-08 10:29N 45°24' W 083°32'4 7.4
2019-Aug-08 10:00N 45°26' W 083°36'4 7.4
2019-Aug-08 09:30N 45°27' W 083°41'4 7.5
2019-Aug-08 09:00N 45°29' W 083°46'4 7.4
2019-Aug-08 08:30N 45°31' W 083°50'20 7.3
2019-Aug-08 05:45N 45°40' W 084°16'2 6.8
2019-Aug-08 05:30N 45°41' W 084°18'4 7.1
2019-Aug-08 05:00N 45°41' W 084°23'4 7.2
2019-Aug-08 04:30N 45°42' W 084°28'4 7.3
2019-Aug-08 04:00N 45°44' W 084°32'4 7.3
2019-Aug-08 03:30N 45°46' W 084°37'4 7.5
2019-Aug-08 03:00N 45°48' W 084°41'3 6.9
2019-Aug-08 02:30N 45°48' W 084°46'4 7.3
2019-Aug-08 02:00N 45°49' W 084°51'4 7.4
2019-Aug-08 01:30N 45°49' W 084°56'7 7.4
2019-Aug-08 00:36N 45°50' W 085°06'2 7.5
2019-Aug-08 00:22N 45°49' W 085°08'3 7.0
2019-Aug-08 00:00N 45°47' W 085°09'3 6.4
2019-Aug-07 23:29N 45°45' W 085°12'13 2.4
2019-Aug-07 18:13N 45°45' W 085°31'0 0.0
2019-Aug-07 17:52N 45°45' W 085°31'0 0.0
2019-Aug-07 17:04N 45°45' W 085°31'0 0.0
2019-Aug-07 07:22N 45°45' W 085°31'  
Track history (hours):
 
Tides and Currents Weather Stations Pressure Air Temp Water Temp Dewpoint Dewpoint Depression Visibility Wind Speed Wind Dir Waves Ship Positions

Picton Castle (Cook Islands)

Ship's website: http://www.picton-castle.com/

Last reported at 2019-Aug-08 10:29 UTC. Time now 2019-Aug-22 08:52 UTC.
Position N 45°24' W 083°32'.
Warning: this ship's position is 13 days out of date.

Length 37 m; draft 4.6 m.

Type: Sailing vessel. MMSI: 518000019.

Date/timePositionNaut miles runAvg speedWind from/ knotsBaromVisibWave heightAir tempDewpointWater temp
2019-Aug-08 10:29N 45°24' W 083°32'4 7.4
2019-Aug-08 10:00N 45°26' W 083°36'4 7.4
2019-Aug-08 09:30N 45°27' W 083°41'4 7.5
2019-Aug-08 09:00N 45°29' W 083°46'4 7.4
2019-Aug-08 08:30N 45°31' W 083°50'20 7.3
2019-Aug-08 05:45N 45°40' W 084°16'2 6.8
2019-Aug-08 05:30N 45°41' W 084°18'4 7.1
2019-Aug-08 05:00N 45°41' W 084°23'4 7.2
2019-Aug-08 04:30N 45°42' W 084°28'4 7.3
2019-Aug-08 04:00N 45°44' W 084°32'4 7.3
2019-Aug-08 03:30N 45°46' W 084°37'4 7.5
2019-Aug-08 03:00N 45°48' W 084°41'3 6.9
2019-Aug-08 02:30N 45°48' W 084°46'4 7.3
2019-Aug-08 02:00N 45°49' W 084°51'4 7.4
2019-Aug-08 01:30N 45°49' W 084°56'7 7.4
2019-Aug-08 00:36N 45°50' W 085°06'2 7.5
2019-Aug-08 00:22N 45°49' W 085°08'3 7.0
2019-Aug-08 00:00N 45°47' W 085°09'3 6.4
2019-Aug-07 23:29N 45°45' W 085°12'13 2.4
2019-Aug-07 18:13N 45°45' W 085°31'0 0.0
2019-Aug-07 17:52N 45°45' W 085°31'0 0.0
2019-Aug-07 17:04N 45°45' W 085°31'0 0.0
2019-Aug-07 07:22N 45°45' W 085°31'  

Dump ship's entire track history